createdAt,value
2017-11-17T00:00:11.850Z,85.00
2017-11-17T00:05:16.964Z,84.95
2017-11-17T00:10:23.700Z,85.12
2017-11-17T00:12:55.421Z,85.08
2017-11-17T00:18:00.292Z,85.17
2017-11-17T00:20:34.490Z,84.82
2017-11-17T00:23:06.179Z,85.14
2017-11-17T00:25:36.920Z,85.15
2017-11-17T00:30:45.331Z,85.16
2017-11-17T00:33:17.031Z,84.96
2017-11-17T00:35:48.001Z,85.08
2017-11-17T00:46:02.162Z,83.99
2017-11-17T00:48:32.523Z,84.24
2017-11-17T00:51:04.639Z,84.69
2017-11-17T00:56:15.156Z,83.47
2017-11-17T01:03:53.687Z,83.88
2017-11-17T01:06:25.937Z,83.82
2017-11-17T01:11:38.536Z,83.03
2017-11-17T01:14:12.204Z,82.74
2017-11-17T01:16:44.040Z,81.92
2017-11-17T01:19:14.797Z,82.23
2017-11-17T01:21:45.867Z,82.14
2017-11-17T01:24:16.043Z,81.76
2017-11-17T01:26:47.564Z,81.31
2017-11-17T01:29:19.548Z,81.40
2017-11-17T01:31:51.712Z,81.70
2017-11-17T01:34:22.270Z,81.95
2017-11-17T01:36:52.141Z,81.61
2017-11-17T01:39:23.971Z,81.83
2017-11-17T01:41:56.073Z,81.87
2017-11-17T01:44:26.559Z,81.67
2017-11-17T01:46:57.096Z,80.92
2017-11-17T01:49:29.039Z,81.18
2017-11-17T01:54:34.166Z,79.88
2017-11-17T01:57:03.992Z,80.52
2017-11-17T01:59:35.356Z,81.03
2017-11-17T02:02:05.723Z,81.29
2017-11-17T02:04:38.980Z,81.15
2017-11-17T02:07:08.892Z,80.88
2017-11-17T02:09:39.035Z,81.03
2017-11-17T02:17:25.511Z,80.41
2017-11-17T02:19:55.975Z,80.75
2017-11-17T02:25:03.604Z,80.62
2017-11-17T02:27:35.834Z,80.45
2017-11-17T02:30:09.653Z,80.58
2017-11-17T02:32:47.466Z,81.30
2017-11-17T02:35:22.701Z,81.30
2017-11-17T02:37:53.122Z,80.07
2017-11-17T02:40:24.357Z,80.22
2017-11-17T02:45:35.056Z,79.70
2017-11-17T03:08:40.693Z,79.97
2017-11-17T03:11:11.740Z,80.02
2017-11-17T03:16:23.586Z,80.29
2017-11-17T03:18:54.449Z,80.19
2017-11-17T03:21:27.255Z,79.56
2017-11-17T03:24:00.248Z,79.95
2017-11-17T03:26:31.662Z,80.47
2017-11-17T03:32:11.642Z,79.79
2017-11-17T03:34:41.911Z,79.92
2017-11-17T03:37:12.133Z,79.63
2017-11-17T03:39:44.341Z,78.97
2017-11-17T03:44:49.548Z,79.22
2017-11-17T03:47:20.649Z,79.24
2017-11-17T03:52:25.323Z,78.79
2017-11-17T03:54:56.472Z,79.04
2017-11-17T03:57:27.286Z,79.32
2017-11-17T04:02:32.803Z,79.78
2017-11-17T04:07:38.761Z,79.79
2017-11-17T04:12:44.565Z,79.61
2017-11-17T04:15:14.779Z,79.89
2017-11-17T04:17:49.688Z,79.90
2017-11-17T04:25:36.755Z,79.36
2017-11-17T04:28:10.772Z,79.80
2017-11-17T04:30:40.789Z,79.42
2017-11-17T04:33:11.077Z,79.38
2017-11-17T04:35:41.051Z,80.23
2017-11-17T04:38:16.548Z,80.63
2017-11-17T04:45:59.163Z,81.50
2017-11-17T04:48:30.796Z,81.69
2017-11-17T04:58:56.433Z,80.76
2017-11-17T05:06:48.727Z,82.07
2017-11-17T05:26:33.681Z,84.02
2017-11-17T05:29:04.315Z,83.57
2017-11-17T05:31:38.946Z,83.97
2017-11-17T05:36:49.229Z,86.40
2017-11-17T05:39:20.810Z,86.34
2017-11-17T05:45:38.535Z,86.13
2017-11-17T05:48:10.284Z,87.02
2017-11-17T05:50:52.921Z,87.65
2017-11-17T05:53:28.110Z,86.83
2017-11-17T05:55:58.881Z,87.22
2017-11-17T05:58:33.564Z,87.24
2017-11-17T06:01:31.474Z,86.32
2017-11-17T06:04:08.454Z,86.69
2017-11-17T06:06:43.315Z,85.79
2017-11-17T06:09:17.749Z,87.13
2017-11-17T06:19:55.842Z,86.11
2017-11-17T06:30:11.896Z,86.33
2017-11-17T06:35:25.178Z,85.84
2017-11-17T06:37:56.028Z,84.07
2017-11-17T06:40:26.166Z,83.96
2017-11-17T06:42:59.691Z,84.11
2017-11-17T06:45:31.014Z,83.56
2017-11-17T06:48:01.084Z,83.58
2017-11-17T06:50:30.815Z,83.60
2017-11-17T06:53:00.876Z,83.88
2017-11-17T06:55:31.705Z,83.54
2017-11-17T06:58:01.801Z,83.85
2017-11-17T07:00:31.643Z,83.18
2017-11-17T07:03:02.944Z,83.38
2017-11-17T07:05:34.716Z,84.13
2017-11-17T07:08:05.416Z,83.00
2017-11-17T07:10:39.311Z,83.59
2017-11-17T07:13:14.558Z,83.27
2017-11-17T07:15:52.868Z,83.18
2017-11-17T07:18:22.928Z,83.46
2017-11-17T07:20:57.587Z,84.29
2017-11-17T07:28:42.548Z,82.99
2017-11-17T07:31:13.287Z,84.22
2017-11-17T07:33:47.158Z,83.69
2017-11-17T07:36:20.369Z,83.95
2017-11-17T07:41:35.683Z,84.21
2017-11-17T07:46:44.275Z,83.71
2017-11-17T07:49:14.440Z,83.19
2017-11-17T07:51:52.480Z,82.72
2017-11-17T07:54:22.869Z,82.70
2017-11-17T07:56:53.493Z,82.20
2017-11-17T07:59:23.180Z,81.85
2017-11-17T08:01:53.202Z,81.65
2017-11-17T08:04:23.399Z,81.53
2017-11-17T08:06:54.940Z,81.87
2017-11-17T08:09:24.848Z,82.15
2017-11-17T08:11:55.050Z,81.79
2017-11-17T08:14:26.912Z,81.35
2017-11-17T08:17:07.991Z,81.55
2017-11-17T08:19:37.843Z,81.64
2017-11-17T08:22:08.611Z,80.93
2017-11-17T08:24:38.772Z,81.05
2017-11-17T08:27:08.815Z,81.03
2017-11-17T08:29:38.758Z,81.32
2017-11-17T08:32:10.120Z,80.72
2017-11-17T08:34:39.835Z,79.79
2017-11-17T08:37:13.957Z,79.79
2017-11-17T08:42:21.066Z,79.09
2017-11-17T08:44:51.140Z,78.76
2017-11-17T08:47:23.086Z,78.59
2017-11-17T08:49:53.045Z,78.30
2017-11-17T08:52:26.344Z,77.39
2017-11-17T08:54:58.396Z,77.56
2017-11-17T08:57:28.656Z,77.25
2017-11-17T08:59:58.445Z,77.68
2017-11-17T09:02:28.676Z,77.61
2017-11-17T09:07:34.845Z,78.59
2017-11-17T09:10:06.294Z,78.26
2017-11-17T09:12:36.624Z,78.38
2017-11-17T09:15:08.573Z,78.98
2017-11-17T09:17:38.768Z,77.87
2017-11-17T09:22:45.753Z,78.31
2017-11-17T09:25:15.953Z,78.03
2017-11-17T09:27:54.097Z,77.76
2017-11-17T09:30:24.257Z,78.02
2017-11-17T09:32:56.458Z,77.59
2017-11-17T09:35:26.428Z,78.50
2017-11-17T09:38:00.178Z,79.64
2017-11-17T09:40:34.930Z,78.30
2017-11-17T09:43:09.622Z,78.19
2017-11-17T09:45:40.062Z,77.35
2017-11-17T09:48:40.076Z,77.69
2017-11-17T09:56:26.496Z,77.11
2017-11-17T09:58:56.629Z,77.27
2017-11-17T10:01:39.451Z,77.67
2017-11-17T10:06:56.694Z,77.53
2017-11-17T10:12:09.940Z,78.11
2017-11-17T10:14:42.481Z,78.71
2017-11-17T10:19:51.329Z,78.48
2017-11-17T10:22:22.326Z,79.21
2017-11-17T10:27:43.413Z,78.62
2017-11-17T10:42:46.455Z,79.12
2017-11-17T10:57:26.124Z,78.46
2017-11-17T10:59:59.995Z,77.91
2017-11-17T11:02:30.211Z,77.97
2017-11-17T11:05:00.963Z,77.82
2017-11-17T11:07:31.914Z,77.87
2017-11-17T11:10:06.303Z,77.99
2017-11-17T11:17:54.578Z,79.40
2017-11-17T11:29:01.872Z,79.36
2017-11-17T11:31:35.036Z,79.71
2017-11-17T11:34:06.969Z,79.70
2017-11-17T11:39:11.853Z,79.46
2017-11-17T11:41:44.006Z,79.37
2017-11-17T11:44:15.506Z,79.63
2017-11-17T11:49:30.606Z,78.80
2017-11-17T11:54:43.127Z,80.22
2017-11-17T11:57:13.401Z,79.75
2017-11-17T11:59:43.707Z,79.43
2017-11-17T12:02:15.103Z,79.10
2017-11-17T12:04:50.380Z,78.83
2017-11-17T12:21:27.435Z,78.51
2017-11-17T12:23:57.543Z,78.19
2017-11-17T12:26:27.476Z,77.50
2017-11-17T12:49:58.916Z,76.05
2017-11-17T12:52:28.900Z,75.98
2017-11-17T12:54:59.442Z,75.97
2017-11-17T12:57:29.630Z,76.02
2017-11-17T12:59:59.615Z,76.69
2017-11-17T13:02:29.523Z,77.90
2017-11-17T13:04:59.482Z,78.08
2017-11-17T13:07:29.531Z,77.50
2017-11-17T13:09:59.580Z,77.21
2017-11-17T13:12:29.580Z,77.15
2017-11-17T13:14:59.479Z,77.13
2017-11-17T13:17:30.914Z,77.22
2017-11-17T13:20:05.041Z,77.29
2017-11-17T13:22:35.669Z,77.16
2017-11-17T13:25:07.253Z,77.24
2017-11-17T13:27:38.800Z,77.45
2017-11-17T13:30:08.662Z,77.04
2017-11-17T13:32:38.453Z,77.79
2017-11-17T13:35:08.363Z,78.88
2017-11-17T13:37:49.174Z,78.44
2017-11-17T13:40:26.133Z,77.74
2017-11-17T13:42:56.683Z,78.51
2017-11-17T13:45:29.263Z,77.32
2017-11-17T13:48:00.008Z,78.17
2017-11-17T13:50:30.761Z,78.03
2017-11-17T13:53:06.078Z,78.10
2017-11-17T13:55:35.684Z,78.42
2017-11-17T13:58:06.462Z,78.77
2017-11-17T14:00:37.387Z,79.04
2017-11-17T14:03:07.934Z,79.12
2017-11-17T14:05:38.095Z,78.98
2017-11-17T14:08:08.191Z,79.66
2017-11-17T14:10:38.607Z,79.11
2017-11-17T14:13:08.449Z,79.12
2017-11-17T14:15:38.393Z,79.01
2017-11-17T14:18:08.237Z,78.77
2017-11-17T14:20:38.043Z,78.96
2017-11-17T14:23:07.942Z,79.13
2017-11-17T14:25:37.811Z,79.05
2017-11-17T14:28:07.607Z,78.79
2017-11-17T14:30:38.571Z,78.85
2017-11-17T14:33:11.850Z,79.18
2017-11-17T14:35:43.271Z,79.46
2017-11-17T14:38:14.158Z,79.18
2017-11-17T14:40:44.153Z,79.69
2017-11-17T14:43:18.873Z,80.15
2017-11-17T14:45:52.451Z,79.40
2017-11-17T14:48:23.149Z,79.81
2017-11-17T14:50:55.421Z,79.92
2017-11-17T14:53:25.757Z,80.04
2017-11-17T14:55:56.714Z,80.18
2017-11-17T14:58:35.376Z,81.57
2017-11-17T15:01:07.673Z,81.83
2017-11-17T15:03:47.843Z,81.27
2017-11-17T15:06:50.845Z,81.59
2017-11-17T15:11:55.201Z,82.00
2017-11-17T15:14:35.200Z,82.22
2017-11-17T15:17:23.646Z,81.73
2017-11-17T15:20:14.765Z,81.83
2017-11-17T15:41:21.722Z,83.14
2017-11-17T15:44:05.436Z,82.50
2017-11-17T15:47:06.409Z,82.85
2017-11-17T15:58:24.891Z,84.18
2017-11-17T16:00:59.958Z,84.23
2017-11-17T16:03:31.130Z,84.48
2017-11-17T16:06:01.069Z,84.80
2017-11-17T16:08:32.070Z,85.41
2017-11-17T16:11:05.620Z,85.56
2017-11-17T16:13:36.438Z,84.76
2017-11-17T16:16:08.080Z,84.69
2017-11-17T16:18:39.043Z,85.29
2017-11-17T16:21:11.391Z,85.73
2017-11-17T16:23:42.796Z,85.04
2017-11-17T16:26:17.106Z,84.98
2017-11-17T16:28:51.644Z,85.38
2017-11-17T16:31:21.401Z,85.53
2017-11-17T16:33:58.882Z,86.56
2017-11-17T16:37:19.218Z,85.64
2017-11-17T16:39:54.339Z,85.28
2017-11-17T16:45:28.504Z,85.30
2017-11-17T16:47:59.452Z,85.36
2017-11-17T16:50:30.858Z,85.70
2017-11-17T16:53:05.001Z,85.65
2017-11-17T17:03:29.609Z,87.21
2017-11-17T17:06:00.152Z,87.49
2017-11-17T17:08:30.260Z,87.51
2017-11-17T17:11:01.356Z,87.32
2017-11-17T17:13:32.496Z,86.31
2017-11-17T17:16:02.750Z,86.29
2017-11-17T17:18:34.663Z,85.90
2017-11-17T17:21:13.681Z,86.52
2017-11-17T17:23:44.119Z,87.18
2017-11-17T17:26:14.468Z,87.05
2017-11-17T17:31:28.454Z,86.96
2017-11-17T17:33:59.540Z,86.82
2017-11-17T17:36:30.760Z,87.23
2017-11-17T17:39:11.771Z,87.08
2017-11-17T17:41:53.956Z,87.28
2017-11-17T17:44:27.347Z,87.33
2017-11-17T17:46:57.588Z,87.00
2017-11-17T18:08:42.291Z,89.66
2017-11-17T18:11:12.781Z,89.90
2017-11-17T18:16:51.646Z,90.79
2017-11-17T18:19:21.619Z,90.90
2017-11-17T18:21:51.450Z,90.76
2017-11-17T18:24:21.258Z,90.90
2017-11-17T18:26:51.291Z,91.09
2017-11-17T18:29:21.261Z,91.60
2017-11-17T18:31:51.715Z,91.80
2017-11-17T18:34:22.694Z,91.71
2017-11-17T18:36:52.744Z,92.26
2017-11-17T18:39:22.740Z,92.38
2017-11-17T18:41:52.599Z,92.53
2017-11-17T18:44:23.150Z,92.61
2017-11-17T18:46:53.050Z,92.88
2017-11-17T18:49:22.638Z,92.96
2017-11-17T18:51:53.438Z,93.18
2017-11-17T18:54:24.113Z,93.31
2017-11-17T18:56:54.196Z,93.50
2017-11-17T18:59:24.192Z,93.15
2017-11-17T19:01:54.055Z,93.55
2017-11-17T19:04:23.765Z,93.35
2017-11-17T19:06:53.750Z,93.70
2017-11-17T19:09:23.515Z,93.35
2017-11-17T19:11:53.257Z,93.84
2017-11-17T19:14:23.008Z,93.50
2017-11-17T19:16:52.637Z,93.93
2017-11-17T19:19:22.552Z,94.17
2017-11-17T19:21:52.388Z,93.97
2017-11-17T19:24:22.883Z,94.48
2017-11-17T19:26:52.689Z,94.02
2017-11-17T19:29:23.011Z,93.90
2017-11-17T19:31:52.870Z,94.14
2017-11-17T19:34:22.688Z,94.29
2017-11-17T19:36:52.486Z,94.11
2017-11-17T19:39:22.255Z,93.71
2017-11-17T19:41:52.100Z,94.02
2017-11-17T19:44:21.917Z,94.04
2017-11-17T19:46:51.687Z,94.02
2017-11-17T19:49:21.439Z,94.10
2017-11-17T19:51:51.190Z,94.12
2017-11-17T19:54:20.925Z,94.33
2017-11-17T19:56:50.682Z,94.37
2017-11-17T19:59:20.443Z,94.32
2017-11-17T20:01:50.185Z,94.42
2017-11-17T20:04:20.263Z,94.54
2017-11-17T20:06:50.039Z,94.47
2017-11-17T20:09:20.102Z,94.46
2017-11-17T20:11:49.876Z,94.70
2017-11-17T20:14:19.687Z,94.44
2017-11-17T20:16:49.913Z,94.04
2017-11-17T20:19:19.651Z,94.39
2017-11-17T20:21:49.400Z,94.66
2017-11-17T20:24:19.159Z,94.60
2017-11-17T20:26:48.969Z,94.49
2017-11-17T20:29:18.781Z,94.27
2017-11-17T20:31:48.537Z,94.41
2017-11-17T20:34:18.419Z,94.17
2017-11-17T20:36:48.251Z,94.48
2017-11-17T20:39:18.024Z,94.37
2017-11-17T20:41:48.667Z,94.39
2017-11-17T20:44:18.411Z,94.30
2017-11-17T20:46:48.213Z,94.44
2017-11-17T20:49:21.439Z,94.37
2017-11-17T20:51:51.203Z,94.53
2017-11-17T20:54:20.943Z,94.33
2017-11-17T20:56:50.734Z,94.37
2017-11-17T20:59:20.341Z,94.53
2017-11-17T21:01:50.079Z,94.34
2017-11-17T21:04:23.708Z,94.40
2017-11-17T21:06:53.545Z,94.58
2017-11-17T21:09:23.441Z,94.40
2017-11-17T21:11:53.011Z,94.14
2017-11-17T21:14:22.762Z,94.55
2017-11-17T21:16:52.498Z,94.54
2017-11-17T21:19:23.233Z,94.06
2017-11-17T21:21:53.001Z,94.26
2017-11-17T21:24:22.737Z,94.58
2017-11-17T21:26:52.553Z,94.15
2017-11-17T21:29:22.287Z,94.45
2017-11-17T21:31:52.101Z,94.01
2017-11-17T21:34:21.914Z,94.16
2017-11-17T21:36:51.784Z,93.96
2017-11-17T21:39:21.772Z,93.96
2017-11-17T21:41:51.595Z,93.85
2017-11-17T21:44:21.653Z,93.89
2017-11-17T21:46:51.870Z,94.15
2017-11-17T21:49:21.720Z,93.96
2017-11-17T21:51:51.531Z,94.33
2017-11-17T21:54:22.163Z,93.92
2017-11-17T21:56:52.082Z,94.16
2017-11-17T21:59:21.825Z,94.16
2017-11-17T22:01:51.626Z,93.72
2017-11-17T22:04:21.453Z,93.85
2017-11-17T22:06:51.276Z,93.74
2017-11-17T22:09:21.076Z,93.87
2017-11-17T22:11:50.908Z,93.65
2017-11-17T22:14:20.691Z,93.96
2017-11-17T22:16:50.435Z,94.23
2017-11-17T22:19:20.167Z,94.58
2017-11-17T22:21:49.990Z,94.48
2017-11-17T22:24:19.776Z,94.25
2017-11-17T22:26:53.573Z,94.44
2017-11-17T22:29:23.443Z,94.46
2017-11-17T22:31:53.226Z,94.21
2017-11-17T22:34:23.064Z,94.48
2017-11-17T22:36:52.830Z,94.84
2017-11-17T22:44:37.439Z,94.66
2017-11-17T22:47:08.064Z,94.92
2017-11-17T22:49:38.985Z,94.89
2017-11-17T22:52:10.496Z,94.94
2017-11-17T22:54:40.495Z,94.60
2017-11-17T22:57:10.966Z,94.39
2017-11-17T22:59:41.299Z,94.93
2017-11-17T23:02:11.780Z,95.27
2017-11-17T23:04:42.253Z,95.27
2017-11-17T23:07:12.792Z,95.35
2017-11-17T23:09:43.944Z,95.38
2017-11-17T23:12:15.371Z,95.65
2017-11-17T23:14:45.451Z,95.61
2017-11-17T23:19:50.874Z,95.79
2017-11-17T23:22:20.722Z,96.19
2017-11-17T23:24:52.625Z,96.10
2017-11-17T23:29:57.583Z,96.24
2017-11-17T23:32:29.693Z,95.77
2017-11-17T23:37:44.499Z,96.27
2017-11-17T23:42:57.791Z,96.26
2017-11-17T23:45:29.344Z,96.02
2017-11-17T23:47:59.588Z,95.24
2017-11-17T23:53:03.394Z,94.47
2017-11-17T23:55:35.123Z,94.58
2017-11-17T23:58:07.796Z,94.29
